Overview Statistics Trail Chart Weather Telemetry Raw packets
 

This is the latest recevied weather packets stored in our database for station/object KG5APU. If no packets are shown the sender has not sent any weather packets the latest 10 day(s).

<< 22 23 24 25 26 27 28 >>
Time Temp. Humidity Pressure Rain* Wind** Luminosity Snow
1788295642 38.89° C 38% 1014.6 hPa 0 mm - 631 W/m² -
1788295027 37.78° C 41% 1015 hPa 0 mm - 652 W/m² -
1788294426 37.22° C 42% 1015 hPa 0 mm - 659 W/m² -
1788293824 37.22° C 42% 1015.3 hPa 0 mm - 682 W/m² -
1788293223 36.67° C 43% 1015.1 hPa 0 mm - 696 W/m² -
1788292621 36.67° C 43% 1015.3 hPa 0 mm - 715 W/m² -
1788292018 36.11° C 45% 1015.5 hPa 0 mm - 729 W/m² -
1788291414 37.22° C 43% 1015.7 hPa 0 mm - 738 W/m² -
1788290814 36.67° C 44% 1015.7 hPa 0 mm - 748 W/m² -
1788290211 36.11° C 47% 1016 hPa 0 mm - 764 W/m² -
1788289609 36.67° C 47% 1016 hPa 0 mm - 774 W/m² -
1788289007 36.11° C 49% 1016.3 hPa 0 mm - 790 W/m² -
1788288401 36.11° C 47% 1016.4 hPa 0 mm - 790 W/m² -
1788287798 36.11° C 48% 1016.6 hPa 0 mm - 790 W/m² -
1788287194 36.67° C 47% 1016.9 hPa 0 mm - 790 W/m² -
1788286593 35.56° C 48% 1016.8 hPa 0 mm - 797 W/m² -
1788285994 35.56° C 48% 1017 hPa 0 mm - 791 W/m² -
1788285392 36.11° C 46% 1017.4 hPa 0 mm - 785 W/m² -
1788284788 35.56° C 48% 1017.6 hPa 0 mm - 784 W/m² -
1788284185 35° C 49% 1017.7 hPa 0 mm - 776 W/m² -
1788283593 35.56° C 48% 1017.9 hPa 0 mm - 767 W/m² -
1788282980 35° C 50% 1018 hPa 0 mm - 755 W/m² -
1788282379 34.44° C 50% 1017.9 hPa 0 mm - 750 W/m² -
1788281778 35° C 50% 1018.1 hPa 0 mm - 722 W/m² -
1788281176 35° C 51% 1018.1 hPa 0 mm - 699 W/m² -

* Rain latest hour (hover to see other rain measurements)
** Current wind speed in m/s (hover to see current wind gust speed)